Time;durP1;ratioP1;P1;durP2;ratioP2;P2;SDS_P1;SDS_P2;PMS_P1;PMS_P2;Temp;Humidity;BMP_temperature;BMP_pressure;BME280_temperature;BME280_humidity;BME280_pressure;Samples;Min_cycle;Max_cycle;Signal;HPM_P1;HPM_P2
2022/11/18 00:01:09;;;;;;;3.72;1.20;;;7.70;99.90;;;;;;5089486;28;20498;-52
2022/11/18 00:03:36;;;;;;;6.30;1.60;;;7.70;99.90;;;;;;5089569;28;20024;-47
2022/11/18 00:06:02;;;;;;;6.60;1.45;;;7.70;99.90;;;;;;5089700;28;20032;-40
2022/11/18 00:08:27;;;;;;;8.60;1.88;;;7.80;99.90;;;;;;5089382;28;20036;-40
2022/11/18 00:10:53;;;;;;;4.25;1.40;;;7.90;99.90;;;;;;5089456;28;20090;-45
2022/11/18 00:16:05;;;;;;;5.00;1.40;;;8.00;99.90;;;;;;5091666;28;20515;-40
2022/11/18 00:18:31;;;;;;;6.53;1.60;;;8.10;99.90;;;;;;5091372;28;20024;-43
2022/11/18 00:21:01;;;;;;;3.97;1.45;;;8.10;99.90;;;;;;5091262;28;20028;-44
2022/11/18 00:23:26;;;;;;;;;;;8.20;99.90;;;;;;5091907;28;20415;-46
2022/11/18 00:25:52;;;;;;;4.47;1.65;;;8.20;99.90;;;;;;5091457;28;19953;-56
2022/11/18 00:28:17;;;;;;;5.97;1.30;;;8.20;99.90;;;;;;5090510;28;20024;-53
2022/11/18 00:30:43;;;;;;;1.90;1.17;;;8.20;99.90;;;;;;5091458;28;20077;-42
2022/11/18 00:33:09;;;;;;;7.53;1.77;;;8.20;99.90;;;;;;5091309;28;20370;-47
2022/11/18 00:35:34;;;;;;;2.63;1.13;;;8.20;99.90;;;;;;5090963;28;20102;-48
2022/11/18 00:38:00;;;;;;;5.68;1.30;;;8.30;99.90;;;;;;5091045;28;20024;-49
2022/11/18 00:40:26;;;;;;;4.25;1.50;;;8.30;99.90;;;;;;5090955;28;20099;-47
2022/11/18 00:42:51;;;;;;;6.78;1.88;;;8.30;99.90;;;;;;5091139;28;20016;-44
2022/11/18 00:45:18;;;;;;;6.43;1.73;;;8.40;99.90;;;;;;5090968;28;20024;-50
2022/11/18 00:47:43;;;;;;;6.85;1.80;;;8.40;99.90;;;;;;5090921;28;20023;-48
2022/11/18 00:50:09;;;;;;;4.13;1.30;;;8.40;99.90;;;;;;5090883;28;20020;-53
2022/11/18 00:52:35;;;;;;;14.63;1.67;;;8.40;99.90;;;;;;5090940;28;20012;-42
2022/11/18 00:55:00;;;;;;;8.02;1.58;;;8.40;99.90;;;;;;5090814;28;20047;-47
2022/11/18 00:57:26;;;;;;;6.55;1.75;;;8.50;99.90;;;;;;5089928;28;20107;-46
2022/11/18 00:59:52;;;;;;;10.07;1.90;;;8.40;99.90;;;;;;5081817;28;20092;-45
2022/11/18 01:02:17;;;;;;;5.63;1.10;;;8.40;99.90;;;;;;5088612;28;20103;-53
2022/11/18 01:04:43;;;;;;;5.32;1.38;;;8.50;99.90;;;;;;5090718;28;20166;-51
2022/11/18 01:07:08;;;;;;;5.47;1.33;;;8.50;99.90;;;;;;5090630;28;20024;-53
2022/11/18 01:09:34;;;;;;;7.88;1.73;;;8.50;99.90;;;;;;5090728;28;20023;-49
2022/11/18 01:14:44;;;;;;;4.20;1.27;;;8.50;99.90;;;;;;5090749;28;20085;-41
2022/11/18 01:17:10;;;;;;;3.33;1.33;;;8.50;99.90;;;;;;5090625;28;20115;-58
2022/11/18 01:19:36;;;;;;;6.50;1.42;;;8.40;99.90;;;;;;5090410;28;20395;-50
2022/11/18 01:22:02;;;;;;;6.95;1.50;;;8.40;99.90;;;;;;5090518;28;20103;-55
2022/11/18 01:24:29;;;;;;;5.93;1.10;;;8.50;99.90;;;;;;5090375;28;20028;-51
2022/11/18 01:26:55;;;;;;;4.45;1.10;;;8.50;99.90;;;;;;5089788;28;20061;-46
2022/11/18 01:29:20;;;;;;;5.40;1.13;;;8.50;99.90;;;;;;5083666;28;20024;-47
2022/11/18 01:31:46;;;;;;;7.13;1.20;;;8.60;99.90;;;;;;5087855;28;20438;-50
2022/11/18 01:34:12;;;;;;;5.82;1.00;;;8.60;99.90;;;;;;5082947;28;20037;-45
2022/11/18 01:36:38;;;;;;;8.40;1.63;;;8.60;99.90;;;;;;5090251;28;20109;-52
2022/11/18 01:39:03;;;;;;;4.07;1.00;;;8.60;99.90;;;;;;5090554;28;20050;-42
2022/11/18 01:41:29;;;;;;;8.32;1.83;;;8.70;99.90;;;;;;5090279;28;20020;-53
2022/11/18 01:43:55;;;;;;;5.63;1.27;;;8.70;99.90;;;;;;5090706;28;20024;-47
2022/11/18 01:46:22;;;;;;;5.38;1.15;;;8.70;99.90;;;;;;5090395;28;20488;-50
2022/11/18 01:49:03;;;;;;;5.72;1.10;;;8.70;99.90;;;;;;5089966;28;20060;-49
2022/11/18 01:51:33;;;;;;;6.75;1.20;;;8.70;99.90;;;;;;5074032;28;20024;-44
2022/11/18 01:54:05;;;;;;;7.82;1.38;;;8.70;99.90;;;;;;5090191;28;20020;-58
2022/11/18 01:56:41;;;;;;;6.03;1.15;;;8.70;99.90;;;;;;5089624;28;20039;-46
2022/11/18 01:59:11;;;;;;;5.35;1.10;;;8.70;99.90;;;;;;5090396;28;20511;-63
2022/11/18 02:01:37;;;;;;;5.72;1.45;;;8.70;99.90;;;;;;5072007;28;20549;-48
2022/11/18 02:04:04;;;;;;;7.60;1.40;;;8.70;99.90;;;;;;5090305;28;20103;-50
2022/11/18 02:06:29;;;;;;;7.45;1.50;;;8.70;99.90;;;;;;5090176;28;20042;-54
2022/11/18 02:08:55;;;;;;;3.97;0.98;;;8.60;99.90;;;;;;5089961;28;20480;-47
2022/11/18 02:14:08;;;;;;;4.65;1.35;;;8.60;99.90;;;;;;5093799;28;20035;-49
2022/11/18 02:16:48;;;;;;;6.15;1.42;;;8.60;99.90;;;;;;5093883;28;20077;-53
2022/11/18 02:19:32;;;;;;;;;;;8.60;99.90;;;;;;5094215;28;20024;-53
2022/11/18 02:22:03;;;;;;;5.07;1.05;;;8.50;99.90;;;;;;5093528;28;19911;-40
2022/11/18 02:24:53;;;;;;;7.25;1.45;;;8.60;99.90;;;;;;5093619;28;20583;-44
2022/11/18 02:27:43;;;;;;;7.75;1.38;;;8.50;99.90;;;;;;5083642;28;20500;-47
2022/11/18 02:30:12;;;;;;;4.55;1.35;;;8.50;99.90;;;;;;5080527;28;20035;-51
2022/11/18 02:32:43;;;;;;;5.32;2.00;;;8.50;99.90;;;;;;5093523;28;20024;-53
2022/11/18 02:35:29;;;;;;;4.95;1.02;;;8.60;99.90;;;;;;5089150;28;20142;-44
2022/11/18 02:38:01;;;;;;;4.43;1.02;;;8.60;99.90;;;;;;5088424;28;20099;-43
2022/11/18 02:40:37;;;;;;;5.78;1.10;;;8.50;99.90;;;;;;5093586;28;20016;-42
2022/11/18 02:43:32;;;;;;;4.13;1.13;;;8.50;99.90;;;;;;5093258;28;20476;-51
2022/11/18 02:46:10;;;;;;;5.22;1.48;;;8.50;99.90;;;;;;5073173;28;20524;-53
2022/11/18 02:48:40;;;;;;;4.15;1.42;;;8.50;99.90;;;;;;5093082;28;20027;-50
2022/11/18 02:51:08;;;;;;;5.13;1.25;;;8.50;99.90;;;;;;5093341;28;20069;-54
2022/11/18 02:53:37;;;;;;;5.32;0.98;;;8.40;99.90;;;;;;5093101;28;20020;-50
2022/11/18 02:56:03;;;;;;;5.55;1.20;;;8.40;99.90;;;;;;5092449;28;20104;-46
2022/11/18 02:58:29;;;;;;;4.07;1.15;;;8.40;99.90;;;;;;5092750;28;20024;-55
2022/11/18 03:00:57;;;;;;;3.72;0.80;;;8.40;99.90;;;;;;5092896;28;20438;-49
2022/11/18 03:03:27;;;;;;;6.90;1.50;;;8.40;99.90;;;;;;5092888;28;20028;-54
2022/11/18 03:06:23;;;;;;;6.18;1.00;;;8.30;99.90;;;;;;5092796;28;20040;-43
2022/11/18 03:09:08;;;;;;;2.30;0.95;;;8.30;99.90;;;;;;5092540;28;20106;-49
2022/11/18 03:11:49;;;;;;;5.50;1.20;;;8.20;99.90;;;;;;5092799;28;20028;-51
2022/11/18 03:14:21;;;;;;;3.85;0.98;;;8.10;99.90;;;;;;5078688;28;20051;-47
2022/11/18 03:17:00;;;;;;;2.90;1.00;;;8.20;99.90;;;;;;5092728;28;20016;-51
2022/11/18 03:19:52;;;;;;;4.78;1.15;;;8.10;99.90;;;;;;5079272;28;20028;-44
2022/11/18 03:22:25;;;;;;;2.97;0.88;;;8.10;99.90;;;;;;5092166;28;20032;-45
2022/11/18 03:25:07;;;;;;;3.90;1.17;;;8.10;99.90;;;;;;5092246;28;20035;-51
2022/11/18 03:27:41;;;;;;;7.25;1.20;;;8.00;99.90;;;;;;5072534;28;20061;-43
2022/11/18 03:30:11;;;;;;;4.28;1.00;;;8.10;99.90;;;;;;5079228;28;20028;-50
2022/11/18 03:32:41;;;;;;;5.68;0.90;;;8.00;99.90;;;;;;5092467;28;20069;-46
2022/11/18 03:35:10;;;;;;;;;;;8.00;99.90;;;;;;5078441;28;20138;-53
2022/11/18 03:37:38;;;;;;;6.03;0.98;;;7.90;99.90;;;;;;5092246;28;20386;-46
2022/11/18 03:40:21;;;;;;;3.33;1.35;;;7.90;99.90;;;;;;5092165;28;20103;-54
2022/11/18 03:42:51;;;;;;;5.40;0.90;;;7.90;99.90;;;;;;5092311;28;20062;-48
2022/11/18 03:45:41;;;;;;;3.25;1.00;;;7.90;99.90;;;;;;5091999;28;20031;-42
2022/11/18 03:48:18;;;;;;;5.88;1.90;;;7.80;99.90;;;;;;5092003;28;20028;-41
2022/11/18 03:50:49;;;;;;;7.47;1.27;;;7.80;99.90;;;;;;5091968;28;20028;-56
2022/11/18 03:53:17;;;;;;;8.45;1.23;;;7.70;99.90;;;;;;5091907;28;20450;-53
2022/11/18 03:55:49;;;;;;;4.80;1.05;;;7.70;99.90;;;;;;5091244;28;20028;-50
2022/11/18 03:58:33;;;;;;;4.50;0.98;;;7.70;99.90;;;;;;5092002;28;20204;-49
2022/11/18 04:01:07;;;;;;;5.32;1.00;;;7.70;99.90;;;;;;5091599;28;20028;-42
2022/11/18 04:03:33;;;;;;;6.20;1.30;;;7.70;99.90;;;;;;5083486;28;20025;-49
2022/11/18 04:06:12;;;;;;;4.15;0.93;;;7.70;99.90;;;;;;5079430;28;20036;-51
2022/11/18 04:08:41;;;;;;;2.92;0.93;;;7.70;99.90;;;;;;5091512;28;20054;-59
2022/11/18 04:14:11;;;;;;;3.83;0.77;;;7.60;99.90;;;;;;5089990;28;20027;-57
2022/11/18 04:16:40;;;;;;;5.97;1.23;;;7.60;99.90;;;;;;5091594;28;20086;-41
2022/11/18 04:19:06;;;;;;;2.28;0.77;;;7.60;99.90;;;;;;5091094;28;20027;-49
2022/11/18 04:21:31;;;;;;;3.80;1.10;;;7.50;99.90;;;;;;5091425;28;20016;-56
2022/11/18 04:23:57;;;;;;;4.97;1.00;;;7.40;99.90;;;;;;5091332;28;20020;-44
2022/11/18 04:26:22;;;;;;;4.15;1.02;;;7.30;99.90;;;;;;5090897;28;20028;-50
2022/11/18 04:28:48;;;;;;;6.30;1.10;;;7.30;99.90;;;;;;5091245;28;20012;-41
2022/11/18 04:31:14;;;;;;;6.20;0.98;;;7.30;99.90;;;;;;5073040;28;20024;-52
2022/11/18 04:33:39;;;;;;;4.35;1.25;;;7.20;99.90;;;;;;5090662;28;20055;-47
2022/11/18 04:36:05;;;;;;;2.78;0.90;;;7.20;99.90;;;;;;5090695;28;20130;-42
2022/11/18 04:38:31;;;;;;;6.32;1.38;;;7.10;99.90;;;;;;5090874;28;20046;-48
2022/11/18 04:40:56;;;;;;;5.32;0.90;;;7.10;99.90;;;;;;5090905;28;20025;-42
2022/11/18 04:43:22;;;;;;;4.35;1.25;;;7.10;99.90;;;;;;5090807;28;20043;-52
2022/11/18 04:45:47;;;;;;;7.80;1.25;;;7.10;99.90;;;;;;5091016;28;20020;-49
2022/11/18 04:48:13;;;;;;;4.47;1.00;;;7.00;99.90;;;;;;5088098;28;20027;-49
2022/11/18 04:50:39;;;;;;;5.18;1.50;;;7.00;99.90;;;;;;5088762;28;20425;-52
2022/11/18 04:53:04;;;;;;;5.78;1.25;;;7.00;99.90;;;;;;5090679;28;20090;-44
2022/11/18 04:55:30;;;;;;;5.32;1.98;;;7.00;99.90;;;;;;5090441;28;20028;-52
2022/11/18 04:57:55;;;;;;;5.30;1.20;;;7.00;99.90;;;;;;5079637;28;20385;-49
2022/11/18 05:00:21;;;;;;;5.78;1.35;;;7.10;99.90;;;;;;5090166;28;20055;-52
2022/11/18 05:02:47;;;;;;;4.88;1.45;;;7.10;99.90;;;;;;5090838;28;20095;-48
2022/11/18 05:05:13;;;;;;;5.65;1.42;;;7.20;99.90;;;;;;5090761;28;20044;-57
2022/11/18 05:07:38;;;;;;;6.57;1.27;;;7.20;99.90;;;;;;5090743;28;20072;-49
2022/11/18 05:10:04;;;;;;;4.47;1.40;;;7.20;99.90;;;;;;5090867;28;20027;-49
2022/11/18 05:12:48;;;;;;;3.65;1.13;;;7.30;99.90;;;;;;5090920;28;20145;-48
2022/11/18 05:15:19;;;;;;;6.30;1.25;;;7.30;99.90;;;;;;5090551;28;20028;-50
2022/11/18 05:17:45;;;;;;;4.07;1.17;;;7.30;99.90;;;;;;5090842;28;20023;-53
2022/11/18 05:20:11;;;;;;;6.43;1.30;;;7.30;99.90;;;;;;5090516;28;20028;-46
2022/11/18 05:22:37;;;;;;;6.82;1.13;;;7.30;99.90;;;;;;5090756;28;20399;-45
2022/11/18 05:25:04;;;;;;;4.63;1.20;;;7.40;99.90;;;;;;5090082;28;20062;-52
2022/11/18 05:27:29;;;;;;;4.32;1.08;;;7.40;99.90;;;;;;5076599;28;20103;-47
2022/11/18 05:29:55;;;;;;;3.05;1.15;;;7.40;99.90;;;;;;5090606;28;20473;-41
2022/11/18 05:32:21;;;;;;;5.20;1.63;;;7.30;99.90;;;;;;5090338;28;20020;-50
2022/11/18 05:34:46;;;;;;;4.07;1.45;;;7.30;99.90;;;;;;5090242;28;20031;-49
2022/11/18 05:37:12;;;;;;;6.13;1.17;;;7.40;99.90;;;;;;5090263;28;20082;-40
2022/11/18 05:39:38;;;;;;;4.03;1.10;;;7.40;99.90;;;;;;5090413;28;20021;-48
2022/11/18 05:44:49;;;;;;;6.13;1.23;;;7.40;99.90;;;;;;5079393;28;20169;-49
2022/11/18 05:47:15;;;;;;;2.45;0.88;;;7.30;99.90;;;;;;5094242;28;20420;-44
2022/11/18 05:49:40;;;;;;;5.88;1.60;;;7.30;99.90;;;;;;5094612;28;20020;-45
2022/11/18 05:52:06;;;;;;;4.32;1.10;;;7.30;99.90;;;;;;5076508;28;20485;-46
2022/11/18 05:54:32;;;;;;;8.18;1.40;;;7.30;99.90;;;;;;5094368;28;20024;-50
2022/11/18 05:56:57;;;;;;;4.88;1.30;;;7.40;99.90;;;;;;5094536;28;20028;-52
2022/11/18 05:59:23;;;;;;;6.45;1.30;;;7.40;99.90;;;;;;5094014;28;20024;-55
2022/11/18 06:02:00;;;;;;;3.45;1.20;;;7.30;99.90;;;;;;5094165;28;20530;-50
2022/11/18 06:04:32;;;;;;;4.70;1.23;;;7.30;99.90;;;;;;5094298;28;20032;-60
2022/11/18 06:07:07;;;;;;;5.00;1.17;;;7.30;99.90;;;;;;5094215;28;20515;-55
2022/11/18 06:09:36;;;;;;;3.92;1.20;;;7.20;99.90;;;;;;5094100;28;20039;-53
2022/11/18 06:12:04;;;;;;;9.93;1.42;;;7.20;99.90;;;;;;5093350;28;20024;-52
2022/11/18 06:14:40;;;;;;;3.80;1.00;;;7.20;99.90;;;;;;5089901;28;20055;-49
2022/11/18 06:17:11;;;;;;;5.43;1.20;;;7.10;99.90;;;;;;5094045;28;20024;-56
2022/11/18 06:19:37;;;;;;;4.63;1.45;;;7.10;99.90;;;;;;5093772;28;20047;-55
2022/11/18 06:22:03;;;;;;;7.82;1.30;;;7.00;99.90;;;;;;5094007;28;20055;-56
2022/11/18 06:24:29;;;;;;;6.03;1.27;;;7.10;99.90;;;;;;5093917;28;20031;-52
2022/11/18 06:26:56;;;;;;;4.18;1.10;;;7.10;99.90;;;;;;5093786;28;20020;-57
2022/11/18 06:29:22;;;;;;;4.20;1.17;;;7.00;99.90;;;;;;5093916;28;20061;-54
2022/11/18 06:31:47;;;;;;;4.72;1.20;;;6.90;99.90;;;;;;5093815;28;20028;-57
2022/11/18 06:34:13;;;;;;;4.97;1.08;;;6.80;99.90;;;;;;5093625;28;20076;-54
2022/11/18 06:36:38;;;;;;;10.35;1.17;;;6.80;99.90;;;;;;5093571;28;20058;-61
2022/11/18 06:39:05;;;;;;;2.92;1.05;;;6.70;99.90;;;;;;5093746;28;20016;-46
2022/11/18 06:41:32;;;;;;;7.22;1.30;;;6.70;99.90;;;;;;5092757;28;20024;-44
2022/11/18 06:43:57;;;;;;;4.40;1.02;;;6.70;99.90;;;;;;5093438;28;20024;-48
2022/11/18 06:49:07;;;;;;;3.53;1.08;;;6.60;99.90;;;;;;5093618;28;20491;-55
2022/11/18 06:51:33;;;;;;;5.88;1.42;;;6.50;99.90;;;;;;5093335;28;20091;-48
2022/11/18 06:53:59;;;;;;;3.90;1.10;;;6.50;99.90;;;;;;5092911;28;20029;-51
2022/11/18 06:56:25;;;;;;;5.95;1.27;;;6.50;99.90;;;;;;5078427;28;20431;-46
2022/11/18 06:58:56;;;;;;;4.53;1.10;;;6.50;99.90;;;;;;5093089;28;20035;-39
2022/11/18 07:01:24;;;;;;;5.60;1.10;;;6.50;99.90;;;;;;5093084;28;20020;-46
2022/11/18 07:03:50;;;;;;;6.55;1.30;;;6.50;99.90;;;;;;5093050;28;20020;-41
2022/11/18 07:06:19;;;;;;;3.05;1.20;;;6.50;99.90;;;;;;5092675;28;20519;-42
2022/11/18 07:08:45;;;;;;;5.30;1.35;;;6.40;99.90;;;;;;5093112;28;20021;-43
2022/11/18 07:11:13;;;;;;;6.95;1.20;;;6.40;99.90;;;;;;5092129;28;20028;-50
2022/11/18 07:13:39;;;;;;;4.40;1.20;;;6.30;99.90;;;;;;5092746;28;20020;-44
2022/11/18 07:16:16;;;;;;;4.47;0.93;;;6.30;99.90;;;;;;5092698;28;20043;-40
2022/11/18 07:18:44;;;;;;;2.55;1.10;;;6.30;99.90;;;;;;5080030;28;20023;-50
2022/11/18 07:21:12;;;;;;;7.90;1.40;;;6.30;99.90;;;;;;5092650;28;20070;-49
2022/11/18 07:23:37;;;;;;;7.32;1.13;;;6.30;99.90;;;;;;5088776;28;20028;-44
2022/11/18 07:26:03;;;;;;;3.65;1.13;;;6.20;99.90;;;;;;5092474;28;20036;-41
2022/11/18 07:28:29;;;;;;;10.82;1.85;;;6.20;99.90;;;;;;5092422;28;20020;-45
2022/11/18 07:31:09;;;;;;;6.03;1.08;;;6.20;99.90;;;;;;5091893;28;20028;-54
2022/11/18 07:33:35;;;;;;;;;;;6.20;99.90;;;;;;5092466;28;20020;-58
2022/11/18 07:36:06;;;;;;;5.13;1.20;;;6.20;99.90;;;;;;5091612;28;19968;-45
2022/11/18 07:38:32;;;;;;;5.10;1.45;;;6.20;99.90;;;;;;5092079;28;20028;-44
2022/11/18 07:41:11;;;;;;;8.73;1.35;;;6.10;99.90;;;;;;5091374;28;20039;-47
2022/11/18 07:43:38;;;;;;;3.70;1.23;;;6.20;99.90;;;;;;5092373;28;20023;-58
2022/11/18 07:46:33;;;;;;;6.63;1.63;;;6.20;99.90;;;;;;5092068;28;20024;-53
2022/11/18 07:49:01;;;;;;;7.45;2.20;;;6.20;99.90;;;;;;5092140;28;20032;-51
2022/11/18 07:51:29;;;;;;;7.47;1.83;;;6.20;99.90;;;;;;5091765;28;20444;-58
2022/11/18 07:53:55;;;;;;;7.72;2.00;;;6.20;99.90;;;;;;5091851;28;20043;-41
2022/11/18 07:56:21;;;;;;;10.15;1.52;;;6.30;99.90;;;;;;5091568;28;20508;-51
2022/11/18 07:58:47;;;;;;;3.40;1.33;;;6.30;99.90;;;;;;5091858;28;20434;-41
2022/11/18 08:01:18;;;;;;;3.25;1.40;;;6.30;99.90;;;;;;5092033;28;20040;-41
2022/11/18 08:03:44;;;;;;;5.13;1.33;;;6.40;99.90;;;;;;5091593;28;20016;-45
2022/11/18 08:06:12;;;;;;;7.72;2.30;;;6.50;99.90;;;;;;5091830;28;20024;-45
2022/11/18 08:08:38;;;;;;;3.63;1.80;;;6.60;99.90;;;;;;5090831;28;20388;-44
2022/11/18 08:11:06;;;;;;;9.65;2.70;;;6.70;99.90;;;;;;5091045;28;20013;-44
2022/11/18 08:13:32;;;;;;;7.70;1.92;;;7.20;99.90;;;;;;5091576;28;20053;-48
2022/11/18 08:15:58;;;;;;;5.95;1.77;;;7.90;99.90;;;;;;5091661;28;20047;-42
2022/11/18 08:18:24;;;;;;;4.97;1.10;;;9.20;99.90;;;;;;5091425;28;20028;-48
2022/11/18 08:20:50;;;;;;;7.90;1.58;;;10.60;99.90;;;;;;5091411;28;20027;-42
2022/11/18 08:23:16;;;;;;;6.18;1.50;;;12.00;99.90;;;;;;5083858;28;20066;-44
2022/11/18 08:25:43;;;;;;;7.70;0.98;;;13.20;99.90;;;;;;5091304;28;20067;-48
2022/11/18 08:28:10;;;;;;;4.53;1.20;;;14.00;99.90;;;;;;5090758;28;20066;-46
2022/11/18 08:30:36;;;;;;;6.95;1.38;;;14.90;99.90;;;;;;5085253;28;20015;-50
2022/11/18 08:33:01;;;;;;;6.28;1.08;;;15.40;99.90;;;;;;5082624;28;20047;-49
2022/11/18 08:35:28;;;;;;;3.85;0.98;;;16.00;99.90;;;;;;5080346;28;20403;-41
2022/11/18 08:37:54;;;;;;;6.55;1.25;;;16.50;98.50;;;;;;5077786;28;20035;-43
2022/11/18 08:40:21;;;;;;;2.88;0.90;;;16.80;97.50;;;;;;5058571;28;20071;-49
2022/11/18 08:42:47;;;;;;;7.75;1.50;;;16.90;96.50;;;;;;5081528;28;20024;-46
2022/11/18 08:45:12;;;;;;;5.07;1.10;;;16.90;97.00;;;;;;5086893;28;20119;-56
2022/11/18 08:47:38;;;;;;;3.88;1.00;;;17.10;95.70;;;;;;5083023;28;20028;-50
2022/11/18 08:50:06;;;;;;;4.50;0.98;;;17.60;95.30;;;;;;5085510;28;20043;-50
2022/11/18 08:52:32;;;;;;;4.35;0.93;;;17.80;93.50;;;;;;5084999;28;20028;-52
2022/11/18 08:54:58;;;;;;;5.05;1.17;;;17.50;93.70;;;;;;5085084;28;20043;-56
2022/11/18 08:57:23;;;;;;;6.28;1.20;;;16.50;93.70;;;;;;5090857;28;20043;-58
2022/11/18 08:59:49;;;;;;;5.70;1.45;;;14.40;96.80;;;;;;5090584;28;20076;-57
2022/11/18 09:02:17;;;;;;;6.85;1.27;;;12.90;99.30;;;;;;5078644;28;20422;-45
2022/11/18 09:04:42;;;;;;;7.22;1.58;;;12.00;99.90;;;;;;5078906;28;20032;-40
2022/11/18 09:07:08;;;;;;;8.98;1.35;;;11.30;99.90;;;;;;5085953;28;20545;-55
2022/11/18 09:09:34;;;;;;;5.35;1.20;;;10.80;99.90;;;;;;5089862;28;20362;-51
2022/11/18 09:12:00;;;;;;;6.10;1.35;;;10.50;99.90;;;;;;5084157;28;20051;-58
2022/11/18 09:14:25;;;;;;;7.68;1.27;;;10.30;99.90;;;;;;5072182;28;20064;-54
2022/11/18 09:16:51;;;;;;;10.95;2.08;;;10.20;99.90;;;;;;5090217;28;20685;-47
2022/11/18 09:19:17;;;;;;;7.97;1.50;;;10.20;99.90;;;;;;5083844;28;20024;-48
2022/11/18 09:21:43;;;;;;;7.57;1.17;;;10.20;99.90;;;;;;5094795;28;20025;-46
2022/11/18 09:24:10;;;;;;;6.57;1.33;;;10.30;99.90;;;;;;5093397;28;20024;-46
2022/11/18 09:26:36;;;;;;;5.30;1.30;;;10.90;99.90;;;;;;5092621;28;20024;-42
2022/11/18 09:29:02;;;;;;;5.63;1.50;;;12.30;99.90;;;;;;5092652;28;20440;-51
2022/11/18 09:31:28;;;;;;;7.28;1.30;;;12.90;99.90;;;;;;5093137;28;20052;-41
2022/11/18 09:33:54;;;;;;;7.57;1.50;;;13.20;99.90;;;;;;5092460;28;20032;-46
2022/11/18 09:36:22;;;;;;;5.35;1.20;;;13.80;99.90;;;;;;5092439;28;20040;-50
2022/11/18 09:38:49;;;;;;;6.60;1.30;;;15.30;99.90;;;;;;5093402;28;20491;-47
2022/11/18 09:41:35;;;;;;;6.82;1.17;;;16.60;99.20;;;;;;5093944;28;20467;-49
2022/11/18 09:44:19;;;;;;;6.38;1.20;;;18.00;95.90;;;;;;5094372;28;20024;-40
2022/11/18 09:46:52;;;;;;;8.20;1.30;;;18.90;93.00;;;;;;5093655;28;20522;-43
2022/11/18 09:49:39;;;;;;;4.32;1.17;;;19.60;92.20;;;;;;5093097;28;20450;-43
2022/11/18 09:52:15;;;;;;;5.50;1.08;;;20.10;91.00;;;;;;5093250;28;20050;-46
2022/11/18 09:54:41;;;;;;;7.30;1.27;;;21.10;88.80;;;;;;5093770;28;20119;-52
2022/11/18 09:57:19;;;;;;;5.63;1.30;;;22.00;85.50;;;;;;5093576;28;20111;-49
2022/11/18 09:59:45;;;;;;;3.80;1.20;;;23.30;79.00;;;;;;5093501;28;20340;-47
2022/11/18 10:02:41;;;;;;;5.32;1.23;;;23.10;78.70;;;;;;5093899;28;20038;-47
2022/11/18 10:05:25;;;;;;;5.78;1.27;;;23.10;76.70;;;;;;5080948;28;20102;-48
2022/11/18 10:07:53;;;;;;;4.13;1.08;;;23.90;74.50;;;;;;5093112;28;20119;-41
2022/11/18 10:10:26;;;;;;;4.97;1.10;;;23.90;70.90;;;;;;5087137;28;20110;-45
2022/11/18 10:13:02;;;;;;;6.05;1.20;;;23.90;73.00;;;;;;5090503;28;20032;-52
2022/11/18 10:15:35;;;;;;;5.40;1.10;;;23.80;69.90;;;;;;5090885;28;20028;-45
2022/11/18 10:18:32;;;;;;;6.18;1.20;;;24.10;71.10;;;;;;5092255;28;20437;-47
2022/11/18 10:21:22;;;;;;;5.85;1.35;;;24.60;67.60;;;;;;5088649;28;20052;-42
2022/11/18 10:23:59;;;;;;;5.90;1.30;;;25.50;66.60;;;;;;5078450;28;20036;-57
2022/11/18 10:26:36;;;;;;;5.15;1.42;;;25.60;64.10;;;;;;5084598;28;20016;-44
2022/11/18 10:29:02;;;;;;;5.53;1.42;;;25.50;65.00;;;;;;5093196;28;20028;-40
2022/11/18 10:31:28;;;;;;;5.25;1.30;;;25.30;62.30;;;;;;5092499;28;20016;-45
2022/11/18 10:34:00;;;;;;;5.18;1.08;;;24.80;63.20;;;;;;5093541;28;20097;-49
2022/11/18 10:36:29;;;;;;;3.45;0.98;;;24.80;64.70;;;;;;5090348;28;20055;-49
2022/11/18 10:39:08;;;;;;;4.18;1.20;;;24.70;64.00;;;;;;5092980;28;20062;-46
2022/11/18 10:41:51;;;;;;;2.55;1.05;;;24.80;63.50;;;;;;5091949;28;20032;-43
2022/11/18 10:44:26;;;;;;;5.03;1.27;;;24.40;65.30;;;;;;5093324;28;20386;-43
2022/11/18 10:46:52;;;;;;;3.30;1.00;;;25.00;64.10;;;;;;5088754;28;20036;-50
2022/11/18 10:49:18;;;;;;;4.65;1.05;;;25.10;63.70;;;;;;5093245;28;20026;-54
2022/11/18 10:51:46;;;;;;;4.25;0.90;;;25.20;63.30;;;;;;5093348;28;20387;-54
2022/11/18 10:54:19;;;;;;;4.43;0.95;;;25.20;61.50;;;;;;5092778;28;20476;-49
2022/11/18 10:57:05;;;;;;;3.42;1.00;;;25.10;62.40;;;;;;5093172;28;20146;-44
2022/11/18 10:59:37;;;;;;;4.32;1.10;;;25.20;60.60;;;;;;5093070;28;20384;-48
2022/11/18 11:02:17;;;;;;;5.63;1.48;;;25.00;61.00;;;;;;5093078;28;20026;-58
2022/11/18 11:04:50;;;;;;;4.65;1.00;;;24.10;62.10;;;;;;5092940;28;20063;-49
2022/11/18 11:07:15;;;;;;;4.57;1.27;;;23.40;63.20;;;;;;5079266;28;20494;-47
2022/11/18 11:09:41;;;;;;;6.28;1.17;;;23.40;64.80;;;;;;5092299;28;20036;-46
2022/11/18 11:12:17;;;;;;;3.75;1.08;;;23.90;63.10;;;;;;5092609;28;20742;-49
2022/11/18 11:14:42;;;;;;;6.40;1.17;;;24.50;64.10;;;;;;5092679;28;20035;-50
2022/11/18 11:17:17;;;;;;;5.10;1.45;;;25.10;60.40;;;;;;5092729;28;20103;-52
2022/11/18 11:20:04;;;;;;;4.10;1.10;;;25.20;60.00;;;;;;5092716;28;20126;-41
2022/11/18 11:22:29;;;;;;;4.68;1.20;;;25.10;60.20;;;;;;5092524;28;20027;-48
2022/11/18 11:24:56;;;;;;;4.90;1.15;;;25.10;61.10;;;;;;5088880;28;20032;-44
2022/11/18 11:27:36;;;;;;;3.33;1.10;;;25.00;59.20;;;;;;5074008;28;20373;-59
2022/11/18 11:30:23;;;;;;;2.90;0.90;;;24.60;61.40;;;;;;5060738;28;20115;-50
2022/11/18 11:33:08;;;;;;;3.58;1.00;;;24.60;61.10;;;;;;5084544;28;20119;-54
2022/11/18 11:35:47;;;;;;;3.15;0.85;;;24.80;61.90;;;;;;5075956;28;20052;-41
2022/11/18 11:38:34;;;;;;;2.97;1.02;;;25.20;60.20;;;;;;5073567;28;20092;-42
2022/11/18 11:41:17;;;;;;;4.13;1.10;;;25.90;60.20;;;;;;5084466;28;20107;-52
2022/11/18 11:43:53;;;;;;;3.75;1.23;;;26.00;57.40;;;;;;5072468;28;20071;-49
2022/11/18 11:50:08;;;;;;;3.30;1.05;;;24.20;60.70;;;;;;4967313;28;20042;-44
2022/11/18 11:52:46;;;;;;;3.40;0.98;;;23.90;62.20;;;;;;5087244;28;20016;-51
2022/11/18 11:55:29;;;;;;;4.35;1.20;;;23.60;61.50;;;;;;5090654;28;20066;-53
2022/11/18 11:58:27;;;;;;;5.75;1.00;;;23.50;62.50;;;;;;5090441;28;20016;-44
2022/11/18 12:01:29;;;;;;;3.63;0.90;;;23.70;62.40;;;;;;5084705;28;20016;-49
2022/11/18 12:04:17;;;;;;;4.90;1.33;;;24.70;60.90;;;;;;5089693;28;20477;-47
2022/11/18 12:06:51;;;;;;;4.10;1.02;;;25.40;60.60;;;;;;5081742;28;20032;-48
2022/11/18 12:09:56;;;;;;;4.05;1.10;;;25.50;58.20;;;;;;5091377;28;20497;-50
2022/11/18 12:12:33;;;;;;;3.67;1.30;;;25.00;57.70;;;;;;5086707;28;20063;-42
2022/11/18 12:15:06;;;;;;;4.68;1.20;;;24.40;59.30;;;;;;5089630;28;20046;-42
2022/11/18 12:17:42;;;;;;;6.60;1.20;;;23.90;59.90;;;;;;5088263;28;20508;-43
2022/11/18 12:20:35;;;;;;;2.95;0.98;;;24.20;62.10;;;;;;5088171;28;20113;-47
2022/11/18 12:23:15;;;;;;;2.42;0.90;;;24.60;61.00;;;;;;5087196;28;20047;-47
2022/11/18 12:25:47;;;;;;;4.43;1.10;;;24.80;59.60;;;;;;5090717;28;20271;-44
2022/11/18 12:28:42;;;;;;;5.30;1.20;;;24.10;59.50;;;;;;5090109;28;20035;-48
2022/11/18 12:31:20;;;;;;;4.25;0.98;;;23.30;61.40;;;;;;5089382;28;20374;-48
2022/11/18 12:33:46;;;;;;;4.85;1.33;;;23.30;61.70;;;;;;5090451;28;20020;-46
2022/11/18 12:36:34;;;;;;;2.95;1.17;;;22.90;62.40;;;;;;5090246;28;20496;-49
2022/11/18 12:39:22;;;;;;;5.68;1.20;;;23.60;62.40;;;;;;5071671;28;20073;-48
2022/11/18 12:44:51;;;;;;;5.28;0.98;;;23.80;63.30;;;;;;5081655;28;20035;-44
2022/11/18 12:47:35;;;;;;;3.10;0.90;;;23.80;63.10;;;;;;5085879;28;20065;-44
2022/11/18 12:50:09;;;;;;;3.90;1.10;;;23.80;61.10;;;;;;5089187;28;20028;-46
2022/11/18 12:52:35;;;;;;;2.88;0.90;;;23.80;64.40;;;;;;5087225;28;20498;-55
2022/11/18 12:55:03;;;;;;;3.05;0.90;;;23.10;61.60;;;;;;5088535;28;20036;-48
2022/11/18 12:57:31;;;;;;;2.33;0.83;;;23.00;63.60;;;;;;5070934;28;20024;-48
2022/11/18 12:59:57;;;;;;;3.78;0.98;;;22.70;65.00;;;;;;5089460;28;20019;-56
2022/11/18 13:02:27;;;;;;;3.08;0.82;;;20.90;64.80;;;;;;5089542;28;20429;-42
2022/11/18 13:05:32;;;;;;;4.70;0.90;;;19.50;69.80;;;;;;5089237;28;20024;-47
2022/11/18 13:08:11;;;;;;;3.22;0.80;;;18.70;72.20;;;;;;5073755;28;20035;-53
2022/11/18 13:10:42;;;;;;;4.22;1.00;;;19.50;72.40;;;;;;5084892;28;20028;-48
2022/11/18 13:13:35;;;;;;;2.17;0.63;;;19.70;71.10;;;;;;5087105;28;20030;-54
2022/11/18 13:19:22;;;;;;;3.60;1.00;;;20.60;68.00;;;;;;5045145;28;20032;-44
2022/11/18 13:24:50;;;;;;;2.72;0.90;;;20.00;68.50;;;;;;5087952;28;20055;-56
2022/11/18 13:27:24;;;;;;;3.65;1.08;;;19.10;69.90;;;;;;5087987;28;20085;-51
2022/11/18 13:30:04;;;;;;;3.90;0.80;;;18.20;72.60;;;;;;5088535;28;20069;-51
2022/11/18 13:32:29;;;;;;;3.58;0.80;;;17.60;78.30;;;;;;5089222;28;20024;-49
2022/11/18 13:35:15;;;;;;;2.28;1.00;;;16.60;77.50;;;;;;5088060;28;20031;-46
2022/11/18 13:38:11;;;;;;;2.60;1.10;;;16.10;79.70;;;;;;5089229;28;20544;-46
2022/11/18 13:43:32;;;;;;;4.03;1.05;;;14.80;86.00;;;;;;5084802;28;20720;-50
2022/11/18 13:46:10;;;;;;;2.03;0.90;;;14.40;85.60;;;;;;5090405;28;20032;-51